createdAt,value
2023-05-06T00:01:37.944Z,98857.22
2023-05-06T00:04:05.427Z,98862.56
2023-05-06T00:06:33.483Z,98856.47
2023-05-06T00:09:00.706Z,98862.00
2023-05-06T00:11:29.302Z,98850.53
2023-05-06T00:13:56.258Z,98848.72
2023-05-06T00:16:23.303Z,98853.91
2023-05-06T00:18:50.765Z,98846.94
2023-05-06T00:21:17.757Z,98845.97
2023-05-06T00:23:44.810Z,98855.25
2023-05-06T00:26:11.840Z,98847.34
2023-05-06T00:28:40.172Z,98848.94
2023-05-06T00:31:07.223Z,98858.06
2023-05-06T00:33:34.151Z,98844.59
2023-05-06T00:36:01.188Z,98850.13
2023-05-06T00:38:28.112Z,98842.81
2023-05-06T00:40:55.319Z,98845.56
2023-05-06T00:43:22.285Z,98841.03
2023-05-06T00:45:51.644Z,98844.97
2023-05-06T00:48:18.876Z,98835.72
2023-05-06T00:50:46.063Z,98839.66
2023-05-06T00:53:13.115Z,98837.69
2023-05-06T00:55:40.397Z,98835.13
2023-05-06T00:58:08.465Z,98832.16
2023-05-06T01:00:35.689Z,98833.16
2023-05-06T01:03:04.254Z,98826.81
2023-05-06T01:05:40.097Z,98827.59
2023-05-06T01:08:14.855Z,98818.28
2023-05-06T01:10:47.460Z,98817.53
2023-05-06T01:13:21.489Z,98813.16
2023-05-06T01:15:53.301Z,98820.69
2023-05-06T01:18:23.084Z,98821.88
2023-05-06T01:20:53.482Z,98821.50
2023-05-06T01:23:21.839Z,98820.75
2023-05-06T01:25:48.859Z,98814.22
2023-05-06T01:28:17.107Z,98812.06
2023-05-06T01:30:53.086Z,98819.16
2023-05-06T01:33:28.110Z,98816.81
2023-05-06T01:36:02.520Z,98811.28
2023-05-06T01:38:37.968Z,98820.38
2023-05-06T01:41:05.485Z,98815.63
2023-05-06T01:43:38.775Z,98811.88
2023-05-06T01:46:09.456Z,98813.81
2023-05-06T01:48:37.640Z,98815.22
2023-05-06T01:51:04.849Z,98812.47
2023-05-06T01:53:36.247Z,98816.19
2023-05-06T01:56:03.287Z,98812.22
2023-05-06T01:58:30.326Z,98808.69
2023-05-06T02:00:57.266Z,98818.56
2023-05-06T02:03:24.321Z,98817.22
2023-05-06T02:05:51.765Z,98811.88
2023-05-06T02:08:20.335Z,98805.94
2023-05-06T02:10:48.732Z,98809.72
2023-05-06T02:13:18.616Z,98809.72
2023-05-06T02:15:46.503Z,98801.63
2023-05-06T02:18:17.354Z,98807.16
2023-05-06T02:20:44.245Z,98810.50
2023-05-06T02:23:16.280Z,98808.94
2023-05-06T02:25:43.558Z,98810.13
2023-05-06T02:28:11.901Z,98815.84
2023-05-06T02:30:39.062Z,98816.59
2023-05-06T02:33:06.236Z,98808.13
2023-05-06T02:35:33.225Z,98821.34
2023-05-06T02:38:01.633Z,98817.97
2023-05-06T02:40:28.591Z,98822.31
2023-05-06T02:42:55.626Z,98823.50
2023-05-06T02:45:24.050Z,98819.69
2023-05-06T02:47:51.177Z,98822.06
2023-05-06T02:50:18.385Z,98819.13
2023-05-06T02:52:45.304Z,98826.63
2023-05-06T02:55:12.322Z,98817.91
2023-05-06T02:57:39.264Z,98825.41
2023-05-06T03:00:07.653Z,98825.97
2023-05-06T03:02:36.110Z,98833.28
2023-05-06T03:05:04.553Z,98831.72
2023-05-06T03:07:32.428Z,98833.28
2023-05-06T03:09:59.893Z,98828.56
2023-05-06T03:12:26.900Z,98831.09
2023-05-06T03:14:53.809Z,98829.91
2023-05-06T03:17:21.700Z,98832.66
2023-05-06T03:19:51.042Z,98843.94
2023-05-06T03:22:18.866Z,98844.72
2023-05-06T03:24:46.396Z,98844.72
2023-05-06T03:27:13.361Z,98848.09
2023-05-06T03:29:41.716Z,98848.47
2023-05-06T03:32:10.758Z,98840.56
2023-05-06T03:34:42.147Z,98854.97
2023-05-06T03:37:13.884Z,98843.53
2023-05-06T03:39:48.221Z,98843.78
2023-05-06T03:42:16.244Z,98852.66
2023-05-06T03:44:44.629Z,98852.66
2023-05-06T03:47:11.692Z,98853.25
2023-05-06T03:49:38.678Z,98858.59
2023-05-06T03:52:06.162Z,98863.13
2023-05-06T03:54:34.665Z,98856.78
2023-05-06T03:57:02.608Z,98861.53
2023-05-06T03:59:30.855Z,98872.63
2023-05-06T04:01:58.329Z,98864.41
2023-05-06T04:04:27.357Z,98876.84
2023-05-06T04:06:54.463Z,98871.47
2023-05-06T04:09:21.540Z,98871.09
2023-05-06T04:11:51.380Z,98870.13
2023-05-06T04:14:18.999Z,98874.69
2023-05-06T04:16:46.444Z,98879.03
2023-05-06T04:19:14.084Z,98874.47
2023-05-06T04:21:40.989Z,98877.84
2023-05-06T04:24:11.631Z,98871.72
2023-05-06T04:26:39.886Z,98883.75
2023-05-06T04:29:09.069Z,98881.56
2023-05-06T04:31:43.136Z,98888.69
2023-05-06T04:34:12.410Z,98884.09
2023-05-06T04:36:40.683Z,98888.47
2023-05-06T04:39:32.971Z,98892.19
2023-05-06T04:41:59.993Z,98888.38
2023-05-06T04:44:36.566Z,98893.84
2023-05-06T04:47:08.342Z,98893.16
2023-05-06T04:49:35.779Z,98885.72
2023-05-06T04:52:04.633Z,98894.16
2023-05-06T04:54:32.443Z,98896.59
2023-05-06T04:56:59.394Z,98899.25
2023-05-06T04:59:27.172Z,98897.59
2023-05-06T05:01:55.629Z,98899.47
2023-05-06T05:04:22.644Z,98900.16
2023-05-06T05:06:49.628Z,98898.97
2023-05-06T05:09:17.030Z,98905.28
2023-05-06T05:11:46.286Z,98901.81
2023-05-06T05:14:13.902Z,98896.34
2023-05-06T05:16:40.980Z,98903.03
2023-05-06T05:19:09.723Z,98903.34
2023-05-06T05:21:37.075Z,98900.38
2023-05-06T05:24:06.437Z,98903.28
2023-05-06T05:26:36.771Z,98907.16
2023-05-06T05:29:03.866Z,98909.84
2023-05-06T05:31:32.284Z,98903.28
2023-05-06T05:34:00.293Z,98905.06
2023-05-06T05:36:29.342Z,98908.00
2023-05-06T05:38:58.727Z,98907.75
2023-05-06T05:41:27.713Z,98905.91
2023-05-06T05:43:58.461Z,98905.72
2023-05-06T05:46:27.266Z,98903.50
2023-05-06T05:48:56.056Z,98904.31
2023-05-06T05:51:23.984Z,98904.13
2023-05-06T05:53:53.371Z,98904.28
2023-05-06T05:56:22.982Z,98907.59
2023-05-06T05:58:49.894Z,98899.00
2023-05-06T06:01:17.567Z,98903.25
2023-05-06T06:03:44.909Z,98910.88
2023-05-06T06:06:12.079Z,98905.59
2023-05-06T06:08:39.658Z,98895.31
2023-05-06T06:11:08.598Z,98902.28
2023-05-06T06:13:40.023Z,98891.41
2023-05-06T06:16:08.292Z,98899.69
2023-05-06T06:18:35.637Z,98893.06
2023-05-06T06:21:03.235Z,98884.59
2023-05-06T06:23:30.441Z,98890.19
2023-05-06T06:26:01.833Z,98888.28
2023-05-06T06:28:30.189Z,98889.97
2023-05-06T06:30:57.235Z,98891.91
2023-05-06T06:33:24.127Z,98887.84
2023-05-06T06:35:51.282Z,98894.16
2023-05-06T06:38:18.454Z,98890.53
2023-05-06T06:40:45.875Z,98890.28
2023-05-06T06:43:12.796Z,98894.69
2023-05-06T06:46:00.857Z,98891.00
2023-05-06T06:48:27.868Z,98893.09
2023-05-06T06:50:54.764Z,98894.09
2023-05-06T06:53:22.041Z,98887.28
2023-05-06T06:55:48.978Z,98884.38
2023-05-06T06:58:16.312Z,98893.19
2023-05-06T07:00:43.892Z,98891.81
2023-05-06T07:03:15.544Z,98893.03
2023-05-06T07:05:42.766Z,98897.13
2023-05-06T07:08:09.730Z,98895.66
2023-05-06T07:10:36.916Z,98894.53
2023-05-06T07:13:04.059Z,98896.47
2023-05-06T07:15:31.026Z,98894.75
2023-05-06T07:17:58.017Z,98890.81
2023-05-06T07:20:26.440Z,98891.50
2023-05-06T07:22:53.353Z,98895.31
2023-05-06T07:25:20.358Z,98885.81
2023-05-06T07:27:49.266Z,98894.41
2023-05-06T07:30:16.421Z,98904.69
2023-05-06T07:32:43.630Z,98890.06
2023-05-06T07:35:10.860Z,98890.00
2023-05-06T07:37:39.980Z,98884.59
2023-05-06T07:40:08.527Z,98899.06
2023-05-06T07:42:35.496Z,98894.09
2023-05-06T07:45:02.572Z,98888.25
2023-05-06T07:49:59.906Z,98896.88
2023-05-06T07:52:27.710Z,98887.63
2023-05-06T07:54:56.080Z,98894.97
2023-05-06T07:57:23.061Z,98901.31
2023-05-06T07:59:51.235Z,98898.28
2023-05-06T08:02:18.768Z,98892.13
2023-05-06T08:04:46.529Z,98889.63
2023-05-06T08:07:14.882Z,98890.19
2023-05-06T08:09:41.822Z,98904.69
2023-05-06T08:12:10.258Z,98890.75
2023-05-06T08:14:37.288Z,98886.28
2023-05-06T08:17:04.408Z,98887.66
2023-05-06T08:19:31.392Z,98885.72
2023-05-06T08:21:58.374Z,98880.16
2023-05-06T08:24:25.705Z,98874.66
2023-05-06T08:26:53.143Z,98878.16
2023-05-06T08:29:21.662Z,98884.00
2023-05-06T08:31:48.776Z,98878.75
2023-05-06T08:34:18.556Z,98879.31
2023-05-06T08:36:45.667Z,98870.28
2023-05-06T08:39:14.562Z,98880.50
2023-05-06T08:41:44.838Z,98883.00
2023-05-06T08:44:16.085Z,98876.22
2023-05-06T08:46:44.476Z,98885.19
2023-05-06T08:49:11.474Z,98875.47
2023-05-06T08:51:38.539Z,98875.38
2023-05-06T08:54:06.438Z,98878.91
2023-05-06T08:56:34.037Z,98874.13
2023-05-06T08:59:01.470Z,98868.94
2023-05-06T09:01:28.901Z,98863.66
2023-05-06T09:03:59.308Z,98870.13
2023-05-06T09:06:27.173Z,98862.91
2023-05-06T09:08:54.525Z,98866.94
2023-05-06T09:11:23.156Z,98864.94
2023-05-06T09:13:51.164Z,98863.59
2023-05-06T09:16:36.214Z,98865.44
2023-05-06T09:19:04.897Z,98863.28
2023-05-06T09:21:35.265Z,98855.75
2023-05-06T09:24:03.087Z,98857.22
2023-05-06T09:26:30.585Z,98861.03
2023-05-06T09:28:58.458Z,98861.53
2023-05-06T09:31:26.008Z,98866.84
2023-05-06T09:33:53.628Z,98854.09
2023-05-06T09:36:22.475Z,98856.53
2023-05-06T09:38:49.723Z,98856.59
2023-05-06T09:41:21.061Z,98849.84
2023-05-06T09:43:49.324Z,98838.88
2023-05-06T09:46:17.231Z,98848.34
2023-05-06T09:48:45.379Z,98844.00
2023-05-06T09:51:12.943Z,98844.31
2023-05-06T09:53:42.791Z,98843.84
2023-05-06T09:56:10.002Z,98840.44
2023-05-06T09:58:37.323Z,98844.63
2023-05-06T10:01:09.405Z,98848.53
2023-05-06T10:03:36.808Z,98836.56
2023-05-06T10:06:06.251Z,98834.25
2023-05-06T10:08:35.041Z,98841.38
2023-05-06T10:11:05.405Z,98844.06
2023-05-06T10:13:32.890Z,98849.50
2023-05-06T10:16:02.799Z,98842.81
2023-05-06T10:18:30.840Z,98839.41
2023-05-06T10:21:00.171Z,98843.31
2023-05-06T10:23:36.022Z,98850.88
2023-05-06T10:26:08.096Z,98847.47
2023-05-06T10:28:39.320Z,98838.59
2023-05-06T10:31:10.964Z,98848.44
2023-05-06T10:33:38.627Z,98843.16
2023-05-06T10:36:20.549Z,98841.47
2023-05-06T10:38:54.724Z,98831.09
2023-05-06T10:41:26.082Z,98838.97
2023-05-06T10:43:57.081Z,98835.94
2023-05-06T10:46:26.233Z,98840.56
2023-05-06T10:49:18.401Z,98836.28
2023-05-06T10:52:11.609Z,98843.34
2023-05-06T10:54:49.353Z,98843.25
2023-05-06T10:57:18.025Z,98841.09
2023-05-06T10:59:46.666Z,98831.19
2023-05-06T11:02:14.714Z,98834.16
2023-05-06T11:04:41.996Z,98834.34
2023-05-06T11:07:11.249Z,98828.34
2023-05-06T11:09:55.388Z,98836.28
2023-05-06T11:12:45.037Z,98820.97
2023-05-06T11:15:25.270Z,98826.69
2023-05-06T11:17:53.893Z,98817.69
2023-05-06T11:20:22.290Z,98829.59
2023-05-06T11:22:49.571Z,98819.53
2023-05-06T11:25:41.215Z,98824.47
2023-05-06T11:28:11.094Z,98821.06
2023-05-06T11:30:41.670Z,98820.88
2023-05-06T11:33:13.772Z,98830.31
2023-05-06T11:35:41.278Z,98817.31
2023-05-06T11:38:08.259Z,98820.34
2023-05-06T11:40:35.466Z,98821.69
2023-05-06T11:43:14.261Z,98811.31
2023-05-06T11:45:43.824Z,98814.19
2023-05-06T11:48:14.139Z,98814.94
2023-05-06T11:50:45.514Z,98815.69
2023-05-06T11:53:13.019Z,98815.56
2023-05-06T11:55:40.177Z,98820.06
2023-05-06T11:58:12.172Z,98810.81
2023-05-06T12:00:49.699Z,98814.00
2023-05-06T12:03:18.352Z,98819.75
2023-05-06T12:05:47.985Z,98816.16
2023-05-06T12:08:26.535Z,98811.34
2023-05-06T12:10:56.449Z,98806.75
2023-05-06T12:13:23.643Z,98807.56
2023-05-06T12:15:54.605Z,98802.88
2023-05-06T12:18:22.295Z,98810.53
2023-05-06T12:20:49.310Z,98798.06
2023-05-06T12:23:17.076Z,98804.06
2023-05-06T12:25:49.270Z,98806.28
2023-05-06T12:28:17.596Z,98805.03
2023-05-06T12:30:45.110Z,98801.75
2023-05-06T12:33:13.603Z,98790.34
2023-05-06T12:35:41.470Z,98784.28
2023-05-06T12:38:09.562Z,98780.72
2023-05-06T12:40:36.832Z,98787.56
2023-05-06T12:43:03.896Z,98784.06
2023-05-06T12:45:31.221Z,98781.75
2023-05-06T12:47:59.253Z,98778.81
2023-05-06T12:50:36.417Z,98770.19
2023-05-06T12:53:03.947Z,98761.41
2023-05-06T12:55:31.503Z,98769.81
2023-05-06T12:57:58.528Z,98760.84
2023-05-06T13:00:25.657Z,98759.63
2023-05-06T13:02:55.060Z,98763.81
2023-05-06T13:05:22.322Z,98769.19
2023-05-06T13:07:51.293Z,98765.84
2023-05-06T13:10:18.244Z,98755.75
2023-05-06T13:12:45.489Z,98753.03
2023-05-06T13:15:12.482Z,98758.00
2023-05-06T13:17:39.514Z,98758.34
2023-05-06T13:20:07.830Z,98763.00
2023-05-06T13:22:47.025Z,98760.06
2023-05-06T13:25:22.298Z,98762.44
2023-05-06T13:27:49.282Z,98763.28
2023-05-06T13:30:17.206Z,98763.31
2023-05-06T13:32:46.868Z,98771.22
2023-05-06T13:35:13.886Z,98771.09
2023-05-06T13:37:40.990Z,98777.97
2023-05-06T13:40:09.723Z,98775.25
2023-05-06T13:42:38.840Z,98784.06
2023-05-06T13:45:07.363Z,98771.59
2023-05-06T13:47:34.295Z,98772.75
2023-05-06T13:50:03.725Z,98760.66
2023-05-06T13:52:30.708Z,98756.44
2023-05-06T13:54:58.382Z,98750.97
2023-05-06T13:57:26.023Z,98752.47
2023-05-06T13:59:54.353Z,98757.53
2023-05-06T14:02:21.406Z,98766.31
2023-05-06T14:04:48.459Z,98770.88
2023-05-06T14:07:15.747Z,98762.56
2023-05-06T14:09:42.656Z,98764.41
2023-05-06T14:12:09.622Z,98765.66
2023-05-06T14:14:36.538Z,98759.09
2023-05-06T14:17:04.830Z,98753.56
2023-05-06T14:19:31.806Z,98763.13
2023-05-06T14:21:58.764Z,98756.41
2023-05-06T14:24:25.691Z,98755.91
2023-05-06T14:26:53.812Z,98752.56
2023-05-06T14:29:20.904Z,98759.09
2023-05-06T14:31:48.044Z,98754.97
2023-05-06T14:34:16.399Z,98760.88
2023-05-06T14:36:43.797Z,98757.47
2023-05-06T14:39:10.816Z,98758.03
2023-05-06T14:41:37.711Z,98759.09
2023-05-06T14:44:05.162Z,98750.09
2023-05-06T14:46:32.169Z,98749.66
2023-05-06T14:48:59.204Z,98755.56
2023-05-06T14:51:28.543Z,98753.56
2023-05-06T14:53:56.302Z,98754.06
2023-05-06T14:56:23.229Z,98749.59
2023-05-06T14:58:50.389Z,98750.44
2023-05-06T15:01:20.845Z,98765.50
2023-05-06T15:03:47.868Z,98757.38
2023-05-06T15:06:14.856Z,98763.88
2023-05-06T15:08:43.246Z,98757.66
2023-05-06T15:11:10.172Z,98756.31
2023-05-06T15:13:37.087Z,98761.91
2023-05-06T15:16:04.798Z,98759.72
2023-05-06T15:18:31.802Z,98756.41
2023-05-06T15:21:01.418Z,98761.69
2023-05-06T15:23:28.509Z,98747.16
2023-05-06T15:25:58.229Z,98756.84
2023-05-06T15:28:25.386Z,98758.72
2023-05-06T15:30:52.338Z,98763.88
2023-05-06T15:33:19.338Z,98764.94
2023-05-06T15:35:46.324Z,98765.44
2023-05-06T15:38:13.253Z,98760.34
2023-05-06T15:40:40.742Z,98765.38
2023-05-06T15:43:09.074Z,98765.88
2023-05-06T15:45:36.217Z,98772.41
2023-05-06T15:48:03.357Z,98770.28
2023-05-06T15:50:33.937Z,98768.94
2023-05-06T15:53:02.273Z,98758.25
2023-05-06T15:55:29.949Z,98762.75
2023-05-06T15:57:58.480Z,98760.47
2023-05-06T16:00:28.279Z,98771.28
2023-05-06T16:02:55.530Z,98771.06
2023-05-06T16:05:22.594Z,98768.31
2023-05-06T16:07:50.004Z,98773.13
2023-05-06T16:10:16.929Z,98780.56
2023-05-06T16:12:43.977Z,98778.00
2023-05-06T16:15:11.443Z,98771.75
2023-05-06T16:17:40.578Z,98777.75
2023-05-06T16:20:10.563Z,98773.34
2023-05-06T16:22:39.841Z,98772.31
2023-05-06T16:25:07.760Z,98774.41
2023-05-06T16:27:35.483Z,98775.19
2023-05-06T16:30:02.408Z,98778.09
2023-05-06T16:32:29.400Z,98779.13
2023-05-06T16:34:59.394Z,98768.19
2023-05-06T16:37:26.632Z,98775.00
2023-05-06T16:39:53.549Z,98773.94
2023-05-06T16:42:20.571Z,98776.03
2023-05-06T16:44:48.059Z,98772.47
2023-05-06T16:47:15.469Z,98778.00
2023-05-06T16:49:42.737Z,98784.56
2023-05-06T16:52:11.266Z,98781.22
2023-05-06T16:54:38.312Z,98787.75
2023-05-06T16:57:05.226Z,98789.91
2023-05-06T16:59:32.262Z,98792.03
2023-05-06T17:01:59.263Z,98792.34
2023-05-06T17:04:26.645Z,98795.28
2023-05-06T17:06:55.141Z,98800.50
2023-05-06T17:09:23.501Z,98788.25
2023-05-06T17:11:50.615Z,98802.41
2023-05-06T17:14:17.628Z,98801.88
2023-05-06T17:16:45.392Z,98794.34
2023-05-06T17:19:12.475Z,98801.69
2023-05-06T17:21:39.752Z,98807.47
2023-05-06T17:24:07.230Z,98804.88
2023-05-06T17:26:38.689Z,98802.81
2023-05-06T17:29:06.171Z,98828.44
2023-05-06T17:31:33.130Z,98821.13
2023-05-06T17:34:00.721Z,98820.91
2023-05-06T17:36:27.949Z,98827.94
2023-05-06T17:39:02.310Z,98834.19
2023-05-06T17:41:29.272Z,98833.41
2023-05-06T17:43:58.126Z,98838.81
2023-05-06T17:46:25.303Z,98844.25
2023-05-06T17:48:52.528Z,98853.34
2023-05-06T17:51:19.569Z,98856.13
2023-05-06T17:53:46.525Z,98850.88
2023-05-06T17:56:13.535Z,98857.91
2023-05-06T17:58:40.482Z,98858.09
2023-05-06T18:01:09.155Z,98856.75
2023-05-06T18:03:36.334Z,98855.41
2023-05-06T18:06:04.206Z,98866.53
2023-05-06T18:08:31.161Z,98871.72
2023-05-06T18:10:58.132Z,98884.19
2023-05-06T18:13:25.610Z,98881.31
2023-05-06T18:15:52.588Z,98888.25
2023-05-06T18:18:24.015Z,98883.53
2023-05-06T18:20:51.087Z,98900.69
2023-05-06T18:23:18.068Z,98903.31
2023-05-06T18:25:45.442Z,98894.72
2023-05-06T18:28:12.754Z,98907.97
2023-05-06T18:30:39.768Z,98905.59
2023-05-06T18:33:06.729Z,98913.66
2023-05-06T18:35:36.598Z,98912.84
2023-05-06T18:38:03.668Z,98923.22
2023-05-06T18:40:31.121Z,98925.53
2023-05-06T18:42:58.243Z,98927.31
2023-05-06T18:45:25.350Z,98931.44
2023-05-06T18:47:52.395Z,98932.97
2023-05-06T18:50:19.557Z,98944.63
2023-05-06T18:52:48.105Z,98940.69
2023-05-06T18:55:15.011Z,98936.78
2023-05-06T18:57:42.012Z,98940.09
2023-05-06T19:00:09.660Z,98950.16
2023-05-06T19:02:37.895Z,98947.72
2023-05-06T19:05:06.320Z,98953.66
2023-05-06T19:07:33.300Z,98960.84
2023-05-06T19:10:01.641Z,98955.81
2023-05-06T19:12:30.164Z,98957.53
2023-05-06T19:14:57.106Z,98958.88
2023-05-06T19:17:24.128Z,98963.47
2023-05-06T19:19:51.250Z,98958.75
2023-05-06T19:22:18.294Z,98961.34
2023-05-06T19:24:45.340Z,98964.75
2023-05-06T19:27:13.659Z,98967.44
2023-05-06T19:29:40.688Z,98965.59
2023-05-06T19:32:07.630Z,98970.94
2023-05-06T19:34:34.609Z,98961.81
2023-05-06T19:37:01.521Z,98967.47
2023-05-06T19:39:28.597Z,98970.06
2023-05-06T19:41:55.751Z,98972.66
2023-05-06T19:44:24.203Z,98972.09
2023-05-06T19:46:54.306Z,98975.19
2023-05-06T19:49:21.438Z,98979.03
2023-05-06T19:51:48.380Z,98975.56
2023-05-06T19:54:15.385Z,98977.06
2023-05-06T19:56:43.553Z,98974.41
2023-05-06T19:59:10.489Z,98989.41
2023-05-06T20:01:38.835Z,98980.06
2023-05-06T20:04:06.327Z,98987.84
2023-05-06T20:06:33.396Z,98989.63
2023-05-06T20:09:00.322Z,98992.22
2023-05-06T20:11:27.227Z,98986.25
2023-05-06T20:13:54.278Z,99001.28
2023-05-06T20:16:21.287Z,98997.78
2023-05-06T20:18:51.544Z,99000.03
2023-05-06T20:21:18.473Z,98998.72
2023-05-06T20:23:45.618Z,98999.09
2023-05-06T20:26:12.535Z,99001.13
2023-05-06T20:28:39.540Z,99004.41
2023-05-06T20:31:06.940Z,99008.84
2023-05-06T20:33:34.188Z,99004.41
2023-05-06T20:36:02.509Z,99002.28
2023-05-06T20:38:30.940Z,99009.75
2023-05-06T20:40:58.784Z,99001.41
2023-05-06T20:43:25.890Z,99004.72
2023-05-06T20:45:52.956Z,98999.44
2023-05-06T20:48:19.948Z,98996.78
2023-05-06T20:50:47.111Z,99001.31
2023-05-06T20:53:15.609Z,99003.78
2023-05-06T20:55:42.588Z,99006.28
2023-05-06T20:58:09.513Z,99000.47
2023-05-06T21:00:36.416Z,99008.13
2023-05-06T21:03:04.801Z,99000.03
2023-05-06T21:05:32.451Z,99003.31
2023-05-06T21:07:59.363Z,99009.84
2023-05-06T21:10:27.688Z,99011.75
2023-05-06T21:12:54.707Z,99006.25
2023-05-06T21:15:22.014Z,99015.22
2023-05-06T21:17:49.223Z,99016.72
2023-05-06T21:20:16.606Z,99012.25
2023-05-06T21:22:43.597Z,99018.41
2023-05-06T21:25:13.091Z,99015.38
2023-05-06T21:27:41.687Z,99018.09
2023-05-06T21:30:09.679Z,99021.47
2023-05-06T21:32:36.633Z,99024.84
2023-05-06T21:35:03.924Z,99019.41
2023-05-06T21:37:35.704Z,99019.78
2023-05-06T21:40:04.461Z,99020.78
2023-05-06T21:42:31.517Z,99025.59
2023-05-06T21:44:59.774Z,99020.88
2023-05-06T21:47:26.968Z,99028.97
2023-05-06T21:49:53.983Z,99030.97
2023-05-06T21:52:21.030Z,99021.88
2023-05-06T21:54:48.291Z,99034.25
2023-05-06T21:57:15.436Z,99032.13
2023-05-06T21:59:42.586Z,99031.59
2023-05-06T22:02:11.017Z,99029.97
2023-05-06T22:04:38.088Z,99033.22
2023-05-06T22:07:05.241Z,99036.81
2023-05-06T22:09:32.139Z,99034.09
2023-05-06T22:11:59.071Z,99034.72
2023-05-06T22:14:30.208Z,99039.19
2023-05-06T22:17:08.030Z,99041.88
2023-05-06T22:19:36.435Z,99045.75
2023-05-06T22:22:04.246Z,99036.31
2023-05-06T22:24:31.397Z,99044.72
2023-05-06T22:26:58.411Z,99039.16
2023-05-06T22:29:25.716Z,99037.59
2023-05-06T22:31:52.760Z,99042.66
2023-05-06T22:34:19.802Z,99041.47
2023-05-06T22:36:48.090Z,99047.53
2023-05-06T22:39:15.102Z,99044.78
2023-05-06T22:41:42.073Z,99044.88
2023-05-06T22:44:09.037Z,99037.75
2023-05-06T22:46:36.182Z,99039.41
2023-05-06T22:49:03.506Z,99035.09
2023-05-06T22:51:32.164Z,99040.31
2023-05-06T22:54:00.906Z,99037.56
2023-05-06T22:56:27.867Z,99041.16
2023-05-06T22:58:54.891Z,99050.31
2023-05-06T23:01:22.845Z,99042.41
2023-05-06T23:03:49.942Z,99047.00
2023-05-06T23:06:18.101Z,99041.25
2023-05-06T23:08:44.991Z,99043.28
2023-05-06T23:11:13.305Z,99030.22
2023-05-06T23:13:40.535Z,99040.94
2023-05-06T23:16:10.160Z,99040.59
2023-05-06T23:18:37.340Z,99033.28
2023-05-06T23:21:04.530Z,99037.84
2023-05-06T23:23:31.922Z,99032.34
2023-05-06T23:25:58.974Z,99025.22
2023-05-06T23:28:28.031Z,99035.16
2023-05-06T23:30:55.046Z,99031.22
2023-05-06T23:33:22.326Z,99026.47
2023-05-06T23:35:49.326Z,99024.56
2023-05-06T23:38:16.313Z,99030.34
2023-05-06T23:40:43.271Z,99023.22
2023-05-06T23:43:11.359Z,99023.63
2023-05-06T23:45:39.808Z,99023.50
2023-05-06T23:48:07.328Z,99023.31
2023-05-06T23:50:34.497Z,99023.56
2023-05-06T23:53:01.459Z,99015.47
2023-05-06T23:55:28.849Z,99020.81
2023-05-06T23:57:55.962Z,99024.81
